Mogollon, New Mexico
Current Conditions -  °F | °C
As of 6:55 AM on Wednesday 26 Nov 2014 (Local Time) from KSVC Reporting Station
Clear Clear  
Wind Chill: 28°   Ceiling: Unl
Heat Index: 36°   Visibility: 10mi
Dew Point: 10°   Wind: 12mph
Humidity: 35%   Direction: 350°N
Pressure: 30.36"   Gusts: NA
Location:  33.3051°N, 108.67°W
Report Text: KSVC 261355Z AUTO 35010KT 10SM CLR 02/M12 A3036 RMK AO2
Loading
Personal Weather Stations






























Interactive Weather Map New forecast layout! Learn more

10-Day Weather Forecast

Advertisements
Track Severe Weather on mobile